createdAt,value
2018-03-27T00:00:26.111Z,4.70
2018-03-27T00:02:52.096Z,4.70
2018-03-27T00:05:18.164Z,4.80
2018-03-27T00:07:45.045Z,4.70
2018-03-27T00:10:11.781Z,4.70
2018-03-27T00:12:37.753Z,4.70
2018-03-27T00:15:04.473Z,4.80
2018-03-27T00:17:30.445Z,4.70
2018-03-27T00:19:57.508Z,4.90
2018-03-27T00:22:23.493Z,4.90
2018-03-27T00:24:49.581Z,4.90
2018-03-27T00:27:15.437Z,4.90
2018-03-27T00:29:53.891Z,4.90
2018-03-27T00:32:32.367Z,4.90
2018-03-27T00:35:11.498Z,4.80
2018-03-27T00:37:50.721Z,4.70
2018-03-27T00:40:29.178Z,4.70
2018-03-27T00:42:55.942Z,4.70
2018-03-27T00:45:22.653Z,4.80
2018-03-27T00:47:48.687Z,4.80
2018-03-27T00:50:14.681Z,4.80
2018-03-27T00:52:40.636Z,4.80
2018-03-27T00:55:06.622Z,4.90
2018-03-27T00:57:32.594Z,4.90
2018-03-27T00:59:58.589Z,4.90
2018-03-27T01:02:24.557Z,4.90
2018-03-27T01:04:50.526Z,4.90
2018-03-27T01:07:16.537Z,4.80
2018-03-27T01:09:42.501Z,4.90
2018-03-27T01:12:08.495Z,4.90
2018-03-27T01:14:34.455Z,4.80
2018-03-27T01:17:00.438Z,4.70
2018-03-27T01:19:26.424Z,4.80
2018-03-27T01:21:52.411Z,4.70
2018-03-27T01:24:18.420Z,4.70
2018-03-27T01:26:44.411Z,4.70
2018-03-27T01:29:10.385Z,4.80
2018-03-27T01:31:36.357Z,4.70
2018-03-27T01:34:03.061Z,4.80
2018-03-27T01:36:29.023Z,4.80
2018-03-27T01:38:54.985Z,4.90
2018-03-27T01:41:21.684Z,4.90
2018-03-27T01:43:47.655Z,4.90
2018-03-27T01:46:13.775Z,4.80
2018-03-27T01:48:39.724Z,4.70
2018-03-27T01:51:05.691Z,4.70
2018-03-27T01:53:32.398Z,4.70
2018-03-27T01:55:58.343Z,4.70
2018-03-27T01:58:24.306Z,4.70
2018-03-27T02:00:51.023Z,4.60
2018-03-27T02:03:17.044Z,4.60
2018-03-27T02:05:43.031Z,4.70
2018-03-27T02:08:09.725Z,4.70
2018-03-27T02:10:35.640Z,4.70
2018-03-27T02:13:07.680Z,4.60
2018-03-27T02:15:39.820Z,4.60
2018-03-27T02:18:12.001Z,4.50
2018-03-27T02:20:44.295Z,4.40
2018-03-27T02:23:13.313Z,4.20
2018-03-27T02:25:39.281Z,4.00
2018-03-27T02:28:05.980Z,3.70
2018-03-27T02:30:31.937Z,3.60
2018-03-27T02:32:57.955Z,3.60
2018-03-27T02:35:24.592Z,3.40
2018-03-27T02:37:50.960Z,3.40
2018-03-27T02:40:16.980Z,3.30
2018-03-27T02:42:43.025Z,3.30
2018-03-27T02:45:08.985Z,3.40
2018-03-27T02:47:34.952Z,3.50
2018-03-27T02:50:00.921Z,3.50
2018-03-27T02:52:26.893Z,3.40
2018-03-27T02:54:53.222Z,3.40
2018-03-27T02:57:19.236Z,3.40
2018-03-27T02:59:45.218Z,3.30
2018-03-27T03:02:11.225Z,3.10
2018-03-27T03:04:37.215Z,3.00
2018-03-27T03:07:03.200Z,3.00
2018-03-27T03:09:29.185Z,2.90
2018-03-27T03:11:55.140Z,3.10
2018-03-27T03:14:21.115Z,3.20
2018-03-27T03:16:47.150Z,3.30
2018-03-27T03:19:13.169Z,3.50
2018-03-27T03:21:39.146Z,3.50
2018-03-27T03:24:05.860Z,3.60
2018-03-27T03:26:31.828Z,3.60
2018-03-27T03:28:58.524Z,3.90
2018-03-27T03:31:24.534Z,3.90
2018-03-27T03:33:50.494Z,4.00
2018-03-27T03:36:16.464Z,4.00
2018-03-27T03:38:42.432Z,3.80
2018-03-27T03:41:08.395Z,3.80
2018-03-27T03:43:34.351Z,3.80
2018-03-27T03:46:00.329Z,3.80
2018-03-27T03:48:27.050Z,4.10
2018-03-27T03:50:53.004Z,4.10
2018-03-27T03:53:18.971Z,4.20
2018-03-27T03:55:44.956Z,4.40
2018-03-27T03:58:10.965Z,4.50
2018-03-27T04:00:37.620Z,4.30
2018-03-27T04:03:03.607Z,4.30
2018-03-27T04:05:30.316Z,4.20
2018-03-27T04:07:56.279Z,4.20
2018-03-27T04:10:22.223Z,4.20
2018-03-27T04:12:48.952Z,3.90
2018-03-27T04:15:14.928Z,3.90
2018-03-27T04:17:40.917Z,3.70
2018-03-27T04:20:06.863Z,3.40
2018-03-27T04:22:32.836Z,3.20
2018-03-27T04:24:58.796Z,3.10
2018-03-27T04:27:24.764Z,3.20
2018-03-27T04:29:50.737Z,3.30
2018-03-27T04:32:16.726Z,3.30
2018-03-27T04:34:42.704Z,3.20
2018-03-27T04:37:08.669Z,3.00
2018-03-27T04:39:34.622Z,2.80
2018-03-27T04:42:00.584Z,2.60
2018-03-27T04:44:26.552Z,2.50
2018-03-27T04:46:52.520Z,2.50
2018-03-27T04:49:18.539Z,2.50
2018-03-27T04:51:44.923Z,2.60
2018-03-27T04:54:10.886Z,2.70
2018-03-27T04:56:37.583Z,2.80
2018-03-27T04:59:03.547Z,2.80
2018-03-27T05:01:29.530Z,2.70
2018-03-27T05:03:55.491Z,2.70
2018-03-27T05:06:21.480Z,2.80
2018-03-27T05:08:48.219Z,2.80
2018-03-27T05:11:14.977Z,2.80
2018-03-27T05:13:41.680Z,2.90
2018-03-27T05:16:07.644Z,2.90
2018-03-27T05:18:35.085Z,3.00
2018-03-27T05:21:01.060Z,2.90
2018-03-27T05:23:27.024Z,3.10
2018-03-27T05:25:52.996Z,3.10
2018-03-27T05:28:19.020Z,3.30
2018-03-27T05:30:45.015Z,3.30
2018-03-27T05:33:11.724Z,3.40
2018-03-27T05:35:37.675Z,3.40
2018-03-27T05:38:03.652Z,3.40
2018-03-27T05:40:29.600Z,3.40
2018-03-27T05:42:55.571Z,3.20
2018-03-27T05:45:21.528Z,3.10
2018-03-27T05:47:47.525Z,3.10
2018-03-27T05:50:13.510Z,3.20
2018-03-27T05:52:40.209Z,3.90
2018-03-27T05:55:06.210Z,3.90
2018-03-27T05:57:32.938Z,4.80
2018-03-27T05:59:58.915Z,4.80
2018-03-27T06:02:24.859Z,4.90
2018-03-27T06:04:50.823Z,5.30
2018-03-27T06:07:16.839Z,5.20
2018-03-27T06:09:42.811Z,4.80
2018-03-27T06:12:08.805Z,4.60
2018-03-27T06:14:34.777Z,4.50
2018-03-27T06:17:00.755Z,4.80
2018-03-27T06:19:26.749Z,5.40
2018-03-27T06:21:52.703Z,6.20
2018-03-27T06:24:19.452Z,6.40
2018-03-27T06:26:45.463Z,6.30
2018-03-27T06:29:11.437Z,6.00
2018-03-27T06:31:38.148Z,6.00
2018-03-27T06:34:04.135Z,6.00
2018-03-27T06:36:30.092Z,6.60
2018-03-27T06:38:56.072Z,7.80
2018-03-27T06:41:22.032Z,8.40
2018-03-27T06:43:48.797Z,8.90
2018-03-27T06:46:14.803Z,8.90
2018-03-27T06:48:41.520Z,8.50
2018-03-27T06:51:07.495Z,8.50
2018-03-27T06:53:34.196Z,8.60
2018-03-27T06:56:00.168Z,8.60
2018-03-27T06:58:26.132Z,8.80
2018-03-27T07:00:52.847Z,10.60
2018-03-27T07:03:18.823Z,10.60
2018-03-27T07:05:45.631Z,10.40
2018-03-27T07:08:11.592Z,10.30
2018-03-27T07:10:37.643Z,9.90
2018-03-27T07:13:03.559Z,10.10
2018-03-27T07:15:29.559Z,10.30
2018-03-27T07:17:55.488Z,10.00
2018-03-27T07:20:21.484Z,9.80
2018-03-27T07:22:47.525Z,9.80
2018-03-27T07:25:13.537Z,10.10
2018-03-27T07:27:40.245Z,11.40
2018-03-27T07:30:06.241Z,11.30
2018-03-27T07:32:32.939Z,11.70
2018-03-27T07:34:58.935Z,11.70
2018-03-27T07:37:24.900Z,11.60
2018-03-27T07:39:57.871Z,11.70
2018-03-27T07:42:24.573Z,13.50
2018-03-27T07:44:50.534Z,13.50
2018-03-27T07:47:16.517Z,14.10
2018-03-27T07:49:42.479Z,14.90
2018-03-27T07:52:08.440Z,14.80
2018-03-27T07:54:34.432Z,14.70
2018-03-27T07:57:00.408Z,16.30
2018-03-27T07:59:26.375Z,17.20
2018-03-27T08:01:52.351Z,17.50
2018-03-27T08:04:18.346Z,17.80
2018-03-27T08:06:44.389Z,16.40
2018-03-27T08:09:10.356Z,17.20
2018-03-27T08:11:36.312Z,17.80
2018-03-27T08:14:03.023Z,18.80
2018-03-27T08:16:28.976Z,18.80
2018-03-27T08:18:54.949Z,19.30
2018-03-27T08:21:20.912Z,19.60
2018-03-27T08:23:46.981Z,19.90
2018-03-27T08:26:12.965Z,19.80
2018-03-27T08:28:39.692Z,19.80
2018-03-27T08:31:05.658Z,19.80
2018-03-27T08:33:32.351Z,19.70
2018-03-27T08:35:58.318Z,19.70
2018-03-27T08:38:24.297Z,19.80
2018-03-27T08:40:50.263Z,20.30
2018-03-27T08:43:16.265Z,20.20
2018-03-27T08:45:42.252Z,20.30
2018-03-27T08:48:08.213Z,20.00
2018-03-27T08:50:34.920Z,20.00
2018-03-27T08:53:00.899Z,20.10
2018-03-27T08:55:27.602Z,19.20
2018-03-27T08:57:53.574Z,19.20
2018-03-27T09:00:20.318Z,18.80
2018-03-27T09:02:46.330Z,18.80
2018-03-27T09:05:12.289Z,18.60
2018-03-27T09:07:38.272Z,18.00
2018-03-27T09:10:04.220Z,17.50
2018-03-27T09:12:30.191Z,16.90
2018-03-27T09:14:56.154Z,16.30
2018-03-27T09:17:22.860Z,15.20
2018-03-27T09:19:48.845Z,15.20
2018-03-27T09:22:15.580Z,14.80
2018-03-27T09:24:42.291Z,14.70
2018-03-27T09:27:08.268Z,14.80
2018-03-27T09:29:34.223Z,14.70
2018-03-27T09:32:00.941Z,15.20
2018-03-27T09:34:26.914Z,15.20
2018-03-27T09:36:53.616Z,14.70
2018-03-27T09:39:19.602Z,14.80
2018-03-27T09:41:46.319Z,14.50
2018-03-27T09:44:12.288Z,14.40
2018-03-27T09:46:38.999Z,14.40
2018-03-27T09:49:05.149Z,14.40
2018-03-27T09:51:31.119Z,14.30
2018-03-27T09:53:57.080Z,14.20
2018-03-27T09:56:23.052Z,14.30
2018-03-27T09:58:49.076Z,14.40
2018-03-27T10:01:21.314Z,14.50
2018-03-27T10:03:47.293Z,14.20
2018-03-27T10:06:13.287Z,13.90
2018-03-27T10:08:39.236Z,13.60
2018-03-27T10:11:05.219Z,13.60
2018-03-27T10:13:31.940Z,14.10
2018-03-27T10:15:57.907Z,14.10
2018-03-27T10:18:23.854Z,14.00
2018-03-27T10:20:50.597Z,13.40
2018-03-27T10:23:16.588Z,13.40
2018-03-27T10:25:42.557Z,13.30
2018-03-27T10:28:08.504Z,13.20
2018-03-27T10:30:34.449Z,13.40
2018-03-27T10:33:01.200Z,14.20
2018-03-27T10:35:27.148Z,14.10
2018-03-27T10:37:53.865Z,15.00
2018-03-27T10:40:20.040Z,15.00
2018-03-27T10:42:46.773Z,14.80
2018-03-27T10:45:13.540Z,14.60
2018-03-27T10:47:40.244Z,14.90
2018-03-27T10:50:06.220Z,14.90
2018-03-27T10:52:32.931Z,14.90
2018-03-27T10:54:58.889Z,14.90
2018-03-27T10:57:24.863Z,14.50
2018-03-27T10:59:50.857Z,14.00
2018-03-27T11:02:16.845Z,13.80
2018-03-27T11:04:42.825Z,13.80
2018-03-27T11:07:08.809Z,13.80
2018-03-27T11:09:34.756Z,13.80
2018-03-27T11:12:00.740Z,13.70
2018-03-27T11:14:26.709Z,13.70
2018-03-27T11:16:52.692Z,13.80
2018-03-27T11:19:18.684Z,13.70
2018-03-27T11:21:44.772Z,13.70
2018-03-27T11:24:11.491Z,13.80
2018-03-27T11:26:37.488Z,13.70
2018-03-27T11:29:04.196Z,13.70
2018-03-27T11:31:30.155Z,13.80
2018-03-27T11:33:56.121Z,13.80
2018-03-27T11:36:22.861Z,14.00
2018-03-27T11:38:49.641Z,14.20
2018-03-27T11:41:15.647Z,14.20
2018-03-27T11:43:42.367Z,14.50
2018-03-27T11:46:08.365Z,14.50
2018-03-27T11:48:34.336Z,14.80
2018-03-27T11:51:00.326Z,14.80
2018-03-27T11:53:27.042Z,14.80
2018-03-27T11:55:53.055Z,14.80
2018-03-27T11:58:19.124Z,14.90
2018-03-27T12:00:45.907Z,14.90
2018-03-27T12:03:11.896Z,14.90
2018-03-27T12:05:37.863Z,14.80
2018-03-27T12:08:03.871Z,14.80
2018-03-27T12:10:29.815Z,14.80
2018-03-27T12:12:55.770Z,14.70
2018-03-27T12:15:22.500Z,14.20
2018-03-27T12:17:48.501Z,14.20
2018-03-27T12:20:15.297Z,14.80
2018-03-27T12:22:41.628Z,14.80
2018-03-27T12:25:07.589Z,15.20
2018-03-27T12:27:34.299Z,15.30
2018-03-27T12:30:00.255Z,15.30
2018-03-27T12:32:26.231Z,15.30
2018-03-27T12:34:52.212Z,15.50
2018-03-27T12:37:24.352Z,15.50
2018-03-27T12:39:50.741Z,15.50
2018-03-27T12:42:16.793Z,15.30
2018-03-27T12:44:42.756Z,15.10
2018-03-27T12:47:09.458Z,15.20
2018-03-27T12:49:35.436Z,15.20
2018-03-27T12:52:02.145Z,14.60
2018-03-27T12:54:28.122Z,14.60
2018-03-27T12:56:54.832Z,14.10
2018-03-27T12:59:20.821Z,14.10
2018-03-27T13:01:47.632Z,14.00
2018-03-27T13:04:13.672Z,14.00
2018-03-27T13:06:39.647Z,14.10
2018-03-27T13:09:06.352Z,14.30
2018-03-27T13:11:32.642Z,14.30
2018-03-27T13:13:59.451Z,14.80
2018-03-27T13:16:25.409Z,14.80
2018-03-27T13:18:52.847Z,14.80
2018-03-27T13:21:18.851Z,14.80
2018-03-27T13:23:44.831Z,14.50
2018-03-27T13:26:10.810Z,14.20
2018-03-27T13:28:36.785Z,14.00
2018-03-27T13:31:02.774Z,13.80
2018-03-27T13:33:29.471Z,13.10
2018-03-27T13:35:55.431Z,13.10
2018-03-27T13:38:21.405Z,12.90
2018-03-27T13:40:47.437Z,12.60
2018-03-27T13:43:14.187Z,12.40
2018-03-27T13:45:40.183Z,12.40
2018-03-27T13:48:06.261Z,12.30
2018-03-27T13:50:32.677Z,12.20
2018-03-27T13:52:58.644Z,12.10
2018-03-27T13:55:25.764Z,11.90
2018-03-27T13:57:51.765Z,11.90
2018-03-27T14:00:17.765Z,11.70
2018-03-27T14:02:43.752Z,11.70
2018-03-27T14:05:09.748Z,11.60
2018-03-27T14:07:36.470Z,11.40
2018-03-27T14:10:02.460Z,11.40
2018-03-27T14:12:28.426Z,11.30
2018-03-27T14:14:54.381Z,11.20
2018-03-27T14:17:20.519Z,11.00
2018-03-27T14:19:47.323Z,11.00
2018-03-27T14:22:13.379Z,10.90
2018-03-27T14:24:39.399Z,11.00
2018-03-27T14:27:05.678Z,11.20
2018-03-27T14:29:31.647Z,11.30
2018-03-27T14:31:58.348Z,11.60
2018-03-27T14:34:24.296Z,11.50
2018-03-27T14:36:50.270Z,11.60
2018-03-27T14:39:16.286Z,11.50
2018-03-27T14:41:42.263Z,11.60
2018-03-27T14:47:00.092Z,11.70
2018-03-27T14:49:26.050Z,11.70
2018-03-27T14:51:52.058Z,11.60
2018-03-27T14:54:18.098Z,11.70
2018-03-27T14:56:44.155Z,11.60
2018-03-27T14:59:10.093Z,11.70
2018-03-27T15:01:36.067Z,11.60
2018-03-27T15:04:02.043Z,11.60
2018-03-27T15:06:28.003Z,11.70
2018-03-27T15:08:55.199Z,11.90
2018-03-27T15:11:21.181Z,11.80
2018-03-27T15:13:47.251Z,12.10
2018-03-27T15:16:13.328Z,12.20
2018-03-27T15:18:39.293Z,12.30
2018-03-27T15:21:05.247Z,12.30
2018-03-27T15:23:32.001Z,12.50
2018-03-27T15:25:58.712Z,12.50
2018-03-27T15:28:24.712Z,12.50
2018-03-27T15:30:50.947Z,12.60
2018-03-27T15:33:17.832Z,12.70
2018-03-27T15:35:43.843Z,12.70
2018-03-27T15:38:09.835Z,12.80
2018-03-27T15:40:35.787Z,12.80
2018-03-27T15:43:01.755Z,12.70
2018-03-27T15:45:27.793Z,12.40
2018-03-27T15:47:53.749Z,12.20
2018-03-27T15:50:19.752Z,12.00
2018-03-27T15:52:46.780Z,11.50
2018-03-27T15:55:12.743Z,11.50
2018-03-27T15:57:39.448Z,10.80
2018-03-27T16:00:05.720Z,10.80
2018-03-27T16:02:32.423Z,10.60
2018-03-27T16:04:58.379Z,10.60
2018-03-27T16:07:24.632Z,10.60
2018-03-27T16:09:50.684Z,10.70
2018-03-27T16:12:17.460Z,10.90
2018-03-27T16:14:44.234Z,10.90
2018-03-27T16:17:10.200Z,11.00
2018-03-27T16:19:36.151Z,11.10
2018-03-27T16:22:02.228Z,11.10
2018-03-27T16:24:28.935Z,10.90
2018-03-27T16:26:54.905Z,10.90
2018-03-27T16:29:21.702Z,10.70
2018-03-27T16:31:47.703Z,10.70
2018-03-27T16:34:13.868Z,10.70
2018-03-27T16:36:39.755Z,10.70
2018-03-27T16:39:06.502Z,10.60
2018-03-27T16:41:32.464Z,10.60
2018-03-27T16:43:59.220Z,10.50
2018-03-27T16:46:25.923Z,10.60
2018-03-27T16:48:51.933Z,10.60
2018-03-27T16:51:18.236Z,10.50
2018-03-27T16:53:44.305Z,10.30
2018-03-27T16:56:10.264Z,10.20
2018-03-27T16:58:36.252Z,10.10
2018-03-27T17:01:02.202Z,10.10
2018-03-27T17:03:28.170Z,10.00
2018-03-27T17:05:54.208Z,10.00
2018-03-27T17:08:20.192Z,9.90
2018-03-27T17:10:47.024Z,9.90
2018-03-27T17:13:12.996Z,9.90
2018-03-27T17:15:39.945Z,9.80
2018-03-27T17:18:06.636Z,9.80
2018-03-27T17:20:32.598Z,9.80
2018-03-27T17:22:58.547Z,9.80
2018-03-27T17:25:25.274Z,9.70
2018-03-27T17:27:51.379Z,9.60
2018-03-27T17:30:17.371Z,9.60
2018-03-27T17:32:43.343Z,9.50
2018-03-27T17:35:09.372Z,9.40
2018-03-27T17:37:35.331Z,9.40
2018-03-27T17:40:01.280Z,9.30
2018-03-27T17:42:27.432Z,9.30
2018-03-27T17:44:53.391Z,9.30
2018-03-27T17:47:19.400Z,9.30
2018-03-27T17:49:45.567Z,9.20
2018-03-27T17:52:12.288Z,9.10
2018-03-27T17:54:38.243Z,9.10
2018-03-27T17:57:05.694Z,9.00
2018-03-27T17:59:31.724Z,9.00
2018-03-27T18:01:58.392Z,9.00
2018-03-27T18:04:24.420Z,9.00
2018-03-27T18:06:50.404Z,8.90
2018-03-27T18:09:17.171Z,8.90
2018-03-27T18:11:43.151Z,8.90
2018-03-27T18:14:09.139Z,8.90
2018-03-27T18:16:35.108Z,8.90
2018-03-27T18:19:01.283Z,8.90
2018-03-27T18:21:28.004Z,8.80
2018-03-27T18:23:53.966Z,8.80
2018-03-27T18:26:20.400Z,8.80
2018-03-27T18:28:47.873Z,8.70
2018-03-27T18:31:14.611Z,8.70
2018-03-27T18:33:40.601Z,8.70
2018-03-27T18:36:06.559Z,8.70
2018-03-27T18:38:32.522Z,8.80
2018-03-27T18:40:58.537Z,8.80
2018-03-27T18:43:24.500Z,8.70
2018-03-27T18:45:50.464Z,8.70
2018-03-27T18:48:17.218Z,8.60
2018-03-27T18:50:43.923Z,8.60
2018-03-27T18:53:09.874Z,8.60
2018-03-27T18:55:35.894Z,8.60
2018-03-27T18:58:01.860Z,8.60
2018-03-27T19:00:27.820Z,8.60
2018-03-27T19:02:53.836Z,8.50
2018-03-27T19:05:19.812Z,8.50
2018-03-27T19:07:45.871Z,8.60
2018-03-27T19:10:11.876Z,8.60
2018-03-27T19:12:37.836Z,8.50
2018-03-27T19:15:03.820Z,8.40
2018-03-27T19:17:30.565Z,8.50
2018-03-27T19:19:56.564Z,8.50
2018-03-27T19:22:22.536Z,8.50
2018-03-27T19:24:48.601Z,8.40
2018-03-27T19:27:15.390Z,8.30
2018-03-27T19:29:41.355Z,8.30
2018-03-27T19:32:07.368Z,8.30
2018-03-27T19:34:33.386Z,8.30
2018-03-27T19:36:59.371Z,8.30
2018-03-27T19:39:26.080Z,8.20
2018-03-27T19:41:52.092Z,8.20
2018-03-27T19:44:18.256Z,8.20
2018-03-27T19:46:45.059Z,8.30
2018-03-27T19:49:11.664Z,8.20
2018-03-27T19:51:37.637Z,8.20
2018-03-27T19:54:03.652Z,8.20
2018-03-27T19:56:29.602Z,8.20
2018-03-27T19:58:55.546Z,8.20
2018-03-27T20:01:21.549Z,8.30
2018-03-27T20:03:47.516Z,8.20
2018-03-27T20:06:14.288Z,8.20
2018-03-27T20:08:40.644Z,8.20
2018-03-27T20:11:06.604Z,8.10
2018-03-27T20:13:32.566Z,8.10
2018-03-27T20:15:59.372Z,8.10
2018-03-27T20:18:25.271Z,8.10
2018-03-27T20:20:51.232Z,8.20
2018-03-27T20:23:17.273Z,8.20
2018-03-27T20:25:43.238Z,8.10
2018-03-27T20:28:09.267Z,8.10
2018-03-27T20:30:35.199Z,8.00
2018-03-27T20:33:01.172Z,8.00
2018-03-27T20:35:27.144Z,8.00
2018-03-27T20:37:53.119Z,7.90
2018-03-27T20:40:19.138Z,7.90
2018-03-27T20:42:45.990Z,8.00
2018-03-27T20:45:11.987Z,7.90
2018-03-27T20:47:38.703Z,7.90
2018-03-27T20:50:04.685Z,7.90
2018-03-27T20:52:31.403Z,8.00
2018-03-27T20:54:57.360Z,8.00
2018-03-27T20:57:24.051Z,8.00
2018-03-27T20:59:50.028Z,8.00
2018-03-27T21:02:16.062Z,7.90
2018-03-27T21:04:42.019Z,7.90
2018-03-27T21:07:08.756Z,7.80
2018-03-27T21:09:35.443Z,7.80
2018-03-27T21:12:01.403Z,7.80
2018-03-27T21:14:27.399Z,7.80
2018-03-27T21:16:54.123Z,7.70
2018-03-27T21:19:20.096Z,7.70
2018-03-27T21:21:46.835Z,7.80
2018-03-27T21:24:13.592Z,7.70
2018-03-27T21:26:40.300Z,7.70
2018-03-27T21:29:06.308Z,7.70
2018-03-27T21:31:32.256Z,7.60
2018-03-27T21:33:58.207Z,7.60
2018-03-27T21:36:24.352Z,7.70
2018-03-27T21:38:50.352Z,7.70
2018-03-27T21:41:16.328Z,7.70
2018-03-27T21:43:42.472Z,7.80
2018-03-27T21:46:08.452Z,7.70
2018-03-27T21:48:34.411Z,7.70
2018-03-27T21:51:00.572Z,7.70
2018-03-27T21:53:26.518Z,7.70
2018-03-27T21:55:52.479Z,7.70
2018-03-27T21:58:19.415Z,7.70
2018-03-27T22:00:46.311Z,7.70
2018-03-27T22:03:12.263Z,7.70
2018-03-27T22:05:38.218Z,7.70
2018-03-27T22:08:04.195Z,7.60
2018-03-27T22:10:30.905Z,7.60
2018-03-27T22:12:56.891Z,7.60
2018-03-27T22:15:23.578Z,7.60
2018-03-27T22:17:49.615Z,7.70
2018-03-27T22:20:15.866Z,7.70
2018-03-27T22:22:41.832Z,7.70
2018-03-27T22:25:07.804Z,7.70
2018-03-27T22:27:33.772Z,7.60
2018-03-27T22:29:59.729Z,7.60
2018-03-27T22:32:25.692Z,7.50
2018-03-27T22:34:52.411Z,7.40
2018-03-27T22:37:18.433Z,7.30
2018-03-27T22:39:44.423Z,7.40
2018-03-27T22:42:11.143Z,7.40
2018-03-27T22:44:38.585Z,7.40
2018-03-27T22:47:04.540Z,7.40
2018-03-27T22:49:30.524Z,7.40
2018-03-27T22:51:56.483Z,7.50
2018-03-27T22:54:22.459Z,7.50
2018-03-27T22:56:48.797Z,7.50
2018-03-27T22:59:14.861Z,7.60
2018-03-27T23:01:41.563Z,7.60
2018-03-27T23:04:07.549Z,7.60
2018-03-27T23:06:34.240Z,7.60
2018-03-27T23:09:00.188Z,7.60
2018-03-27T23:11:26.180Z,7.60
2018-03-27T23:13:52.149Z,7.60
2018-03-27T23:16:18.141Z,7.60
2018-03-27T23:18:44.916Z,7.70
2018-03-27T23:21:10.948Z,7.70
2018-03-27T23:23:36.899Z,7.70
2018-03-27T23:26:03.071Z,7.60
2018-03-27T23:28:29.049Z,7.60
2018-03-27T23:30:55.025Z,7.60
2018-03-27T23:33:21.041Z,7.60
2018-03-27T23:35:47.076Z,7.70
2018-03-27T23:38:13.059Z,7.70
2018-03-27T23:40:39.193Z,7.70
2018-03-27T23:43:05.148Z,7.70
2018-03-27T23:45:31.117Z,7.50
2018-03-27T23:47:57.159Z,7.60
2018-03-27T23:50:23.121Z,7.70
2018-03-27T23:52:49.081Z,7.70
2018-03-27T23:55:15.123Z,7.70
2018-03-27T23:57:41.092Z,7.70
